地図

経路データ

SID SEASON NUMBER BASIN SUBBASIN NAME ISO_TIME NATURE LAT LON WMO_WIND WMO_PRES WMO_AGENCY TRACK_TYPE DIST2LAND LANDFALL IFLAG USA_AGENCY USA_ATCF_ID USA_LAT USA_LON USA_RECORD USA_STATUS USA_WIND USA_PRES USA_SSHS USA_R34_NE USA_R34_SE USA_R34_SW USA_R34_NW USA_R50_NE USA_R50_SE USA_R50_SW USA_R50_NW USA_R64_NE USA_R64_SE USA_R64_SW USA_R64_NW USA_POCI USA_ROCI USA_RMW USA_EYE TOKYO_LAT TOKYO_LON TOKYO_GRADE TOKYO_WIND TOKYO_PRES TOKYO_R50_DIR TOKYO_R50_LONG TOKYO_R50_SHORT TOKYO_R30_DIR TOKYO_R30_LONG TOKYO_R30_SHORT TOKYO_LAND CMA_LAT CMA_LON CMA_CAT CMA_WIND CMA_PRES HKO_LAT HKO_LON HKO_CAT HKO_WIND HKO_PRES NEWDELHI_LAT NEWDELHI_LON NEWDELHI_GRADE NEWDELHI_WIND NEWDELHI_PRES NEWDELHI_CI NEWDELHI_DP NEWDELHI_POCI REUNION_LAT REUNION_LON REUNION_TYPE REUNION_WIND REUNION_PRES REUNION_TNUM REUNION_CI REUNION_RMW REUNION_R34_NE REUNION_R34_SE REUNION_R34_SW REUNION_R34_NW REUNION_R50_NE REUNION_R50_SE REUNION_R50_SW REUNION_R50_NW REUNION_R64_NE REUNION_R64_SE REUNION_R64_SW REUNION_R64_NW BOM_LAT BOM_LON BOM_TYPE BOM_WIND BOM_PRES BOM_TNUM BOM_CI BOM_RMW BOM_R34_NE BOM_R34_SE BOM_R34_SW BOM_R34_NW BOM_R50_NE BOM_R50_SE BOM_R50_SW BOM_R50_NW BOM_R64_NE BOM_R64_SE BOM_R64_SW BOM_R64_NW BOM_ROCI BOM_POCI BOM_EYE BOM_POS_METHOD BOM_PRES_METHOD NADI_LAT NADI_LON NADI_CAT NADI_WIND NADI_PRES WELLINGTON_LAT WELLINGTON_LON WELLINGTON_WIND WELLINGTON_PRES DS824_LAT DS824_LON DS824_STAGE DS824_WIND DS824_PRES TD9636_LAT TD9636_LON TD9636_STAGE TD9636_WIND TD9636_PRES TD9635_LAT TD9635_LON TD9635_WIND TD9635_PRES TD9635_ROCI NEUMANN_LAT NEUMANN_LON NEUMANN_CLASS NEUMANN_WIND NEUMANN_PRES MLC_LAT MLC_LON MLC_CLASS MLC_WIND MLC_PRES USA_GUST BOM_GUST BOM_GUST_PER REUNION_GUST REUNION_GUST_PER USA_SEAHGT USA_SEARAD_NE USA_SEARAD_SE USA_SEARAD_SW USA_SEARAD_NW STORM_SPEED STORM_DIR
1991264N10260 1991 70 EP MM JIMENA 1991-09-20 18:00:00 TS 10.1000 -100.100 25 1009 hurdat_epa main 706 703 O_____________ hurdat_epa EP121991 10.1000 -100.100 TD 25 1009 -1 6 287
1991264N10260 1991 70 EP MM JIMENA 1991-09-20 21:00:00 TS 10.1825 -100.380 main 707 705 P_____________ EP121991 10.1825 -100.380 TD 27 1008 -1 6 289
1991264N10260 1991 70 EP MM JIMENA 1991-09-21 00:00:00 TS 10.3000 -100.700 30 1008 hurdat_epa main 709 699 O_____________ hurdat_epa EP121991 10.3000 -100.700 TD 30 1008 -1 8 293
1991264N10260 1991 70 EP MM JIMENA 1991-09-21 03:00:00 TS 10.4775 -101.085 main 703 696 P_____________ EP121991 10.4775 -101.085 TD 30 1008 -1 9 297
1991264N10260 1991 70 EP MM JIMENA 1991-09-21 06:00:00 TS 10.7000 -101.500 30 1008 hurdat_epa main 699 687 O_____________ hurdat_epa EP121991 10.7000 -101.500 TD 30 1008 -1 9 300
1991264N10260 1991 70 EP MM JIMENA 1991-09-21 09:00:00 TS 10.9425 -101.908 main 691 672 P_____________ EP121991 10.9425 -101.908 TD 30 1007 -1 9 302
1991264N10260 1991 70 EP MM JIMENA 1991-09-21 12:00:00 TS 11.2000 -102.300 30 1007 hurdat_epa main 676 670 O_____________ hurdat_epa EP121991 11.2000 -102.300 TD 30 1007 -1 9 303
1991264N10260 1991 70 EP MM JIMENA 1991-09-21 15:00:00 TS 11.4425 -102.680 main 675 659 P_____________ EP121991 11.4425 -102.680 TD 32 1006 -1 9 306
1991264N10260 1991 70 EP MM JIMENA 1991-09-21 18:00:00 TS 11.7000 -103.000 35 1005 hurdat_epa main 659 634 O_____________ hurdat_epa EP121991 11.7000 -103.000 TS 35 1005 0 8 317
1991264N10260 1991 70 EP MM JIMENA 1991-09-21 21:00:00 TS 11.9999 -103.215 main 634 611 P_____________ EP121991 11.9999 -103.215 TS 37 1004 0 7 327
1991264N10260 1991 70 EP MM JIMENA 1991-09-22 00:00:00 TS 12.3000 -103.400 40 1003 hurdat_epa main 611 590 O_____________ hurdat_epa EP121991 12.3000 -103.400 TS 40 1003 0 7 324
1991264N10260 1991 70 EP MM JIMENA 1991-09-22 03:00:00 TS 12.5725 -103.650 main 590 581 P_____________ EP121991 12.5725 -103.650 TS 42 1001 0 7 316
1991264N10260 1991 70 EP MM JIMENA 1991-09-22 06:00:00 TS 12.8000 -103.900 45 1000 hurdat_epa main 586 579 O_____________ hurdat_epa EP121991 12.8000 -103.900 TS 45 1000 0 6 312
1991264N10260 1991 70 EP MM JIMENA 1991-09-22 09:00:00 TS 12.9649 -104.093 main 579 574 P_____________ EP121991 12.9649 -104.093 TS 50 997 0 5 308
1991264N10260 1991 70 EP MM JIMENA 1991-09-22 12:00:00 TS 13.1000 -104.300 55 994 hurdat_epa main 577 563 O_____________ hurdat_epa EP121991 13.1000 -104.300 TS 55 994 0 6 304
1991264N10260 1991 70 EP MM JIMENA 1991-09-22 15:00:00 TS 13.2725 -104.570 main 567 560 P_____________ EP121991 13.2725 -104.570 TS 60 990 0 7 297
1991264N10260 1991 70 EP MM JIMENA 1991-09-22 18:00:00 TS 13.4000 -104.900 65 987 hurdat_epa main 567 567 O_____________ hurdat_epa EP121991 13.4000 -104.900 HU 65 987 1 7 282
1991264N10260 1991 70 EP MM JIMENA 1991-09-22 21:00:00 TS 13.4150 -105.278 main 581 581 P_____________ EP121991 13.4150 -105.278 HU 75 981 1 8 270
1991264N10260 1991 70 EP MM JIMENA 1991-09-23 00:00:00 TS 13.4000 -105.700 85 975 hurdat_epa main 596 596 O_____________ hurdat_epa EP121991 13.4000 -105.700 HU 85 975 2 8 272
1991264N10260 1991 70 EP MM JIMENA 1991-09-23 03:00:00 TS 13.4499 -106.127 main 614 609 P_____________ EP121991 13.4499 -106.127 HU 95 969 2 9 277
1991264N10260 1991 70 EP MM JIMENA 1991-09-23 06:00:00 TS 13.5000 -106.600 105 963 hurdat_epa main 631 631 O_____________ hurdat_epa EP121991 13.5000 -106.600 HU 105 963 3 10 274
1991264N10260 1991 70 EP MM JIMENA 1991-09-23 09:00:00 TS 13.5149 -107.128 main 660 660 P_____________ EP121991 13.5149 -107.128 HU 107 958 3 11 270
1991264N10260 1991 70 EP MM JIMENA 1991-09-23 12:00:00 TS 13.5000 -107.700 110 954 hurdat_epa main 700 700 O_____________ hurdat_epa EP121991 13.5000 -107.700 HU 110 954 3 11 267
1991264N10260 1991 70 EP MM JIMENA 1991-09-23 15:00:00 TS 13.4500 -108.300 main 748 748 P_____________ EP121991 13.4500 -108.300 HU 112 951 3 12 265
1991264N10260 1991 70 EP MM JIMENA 1991-09-23 18:00:00 TS 13.4000 -108.900 115 949 hurdat_epa main 782 782 O_____________ hurdat_epa EP121991 13.4000 -108.900 HU 115 949 4 11 267
1991264N10260 1991 70 EP MM JIMENA 1991-09-23 21:00:00 TS 13.3924 -109.465 main 820 820 P_____________ EP121991 13.3924 -109.465 HU 115 948 4 11 270
1991264N10260 1991 70 EP MM JIMENA 1991-09-24 00:00:00 TS 13.4000 -110.000 115 947 hurdat_epa main 853 853 O_____________ hurdat_epa EP121991 13.4000 -110.000 HU 115 947 4 10 270
1991264N10260 1991 70 EP MM JIMENA 1991-09-24 03:00:00 TS 13.3998 -110.500 main 889 889 P_____________ EP121991 13.3998 -110.500 HU 115 946 4 10 270
1991264N10260 1991 70 EP MM JIMENA 1991-09-24 06:00:00 TS 13.4000 -111.000 115 946 hurdat_epa main 926 926 O_____________ hurdat_epa EP121991 13.4000 -111.000 HU 115 946 4 10 270
1991264N10260 1991 70 EP MM JIMENA 1991-09-24 09:00:00 TS 13.4000 -111.550 main 972 972 P_____________ EP121991 13.4000 -111.550 HU 115 945 4 11 270
1991264N10260 1991 70 EP MM JIMENA 1991-09-24 12:00:00 TS 13.4000 -112.100 115 945 hurdat_epa main 1010 1010 O_____________ hurdat_epa EP121991 13.4000 -112.100 HU 115 945 4 10 270
1991264N10260 1991 70 EP MM JIMENA 1991-09-24 15:00:00 TS 13.4074 -112.607 main 1049 1049 P_____________ EP121991 13.4074 -112.607 HU 115 945 4 10 270
1991264N10260 1991 70 EP MM JIMENA 1991-09-24 18:00:00 TS 13.4000 -113.100 115 945 hurdat_epa main 1089 1089 O_____________ hurdat_epa EP121991 13.4000 -113.100 HU 115 945 4 10 266
1991264N10260 1991 70 EP MM JIMENA 1991-09-24 21:00:00 TS 13.3424 -113.600 main 1138 1138 P_____________ EP121991 13.3424 -113.600 HU 112 948 3 10 264
1991264N10260 1991 70 EP MM JIMENA 1991-09-25 00:00:00 TS 13.3000 -114.100 110 951 hurdat_epa main 1157 1157 O_____________ hurdat_epa EP121991 13.3000 -114.100 HU 110 951 3 10 270
1991264N10260 1991 70 EP MM JIMENA 1991-09-25 03:00:00 TS 13.3424 -114.607 main 1178 1172 P_____________ EP121991 13.3424 -114.607 HU 110 950 3 10 276
1991264N10260 1991 70 EP MM JIMENA 1991-09-25 06:00:00 TS 13.4000 -115.100 110 950 hurdat_epa main 1191 1191 O_____________ hurdat_epa EP121991 13.4000 -115.100 HU 110 950 3 9 274
1991264N10260 1991 70 EP MM JIMENA 1991-09-25 09:00:00 TS 13.3999 -115.558 main 1216 1216 P_____________ EP121991 13.3999 -115.558 HU 112 949 3 9 270
1991264N10260 1991 70 EP MM JIMENA 1991-09-25 12:00:00 TS 13.4000 -116.000 115 948 hurdat_epa main 1237 1237 O_____________ hurdat_epa EP121991 13.4000 -116.000 HU 115 948 4 9 272
1991264N10260 1991 70 EP MM JIMENA 1991-09-25 15:00:00 TS 13.4350 -116.458 main 1264 1261 P_____________ EP121991 13.4350 -116.458 HU 115 948 4 9 277
1991264N10260 1991 70 EP MM JIMENA 1991-09-25 18:00:00 TS 13.5000 -116.900 115 948 hurdat_epa main 1278 1278 O_____________ hurdat_epa EP121991 13.5000 -116.900 HU 115 948 4 8 281
1991264N10260 1991 70 EP MM JIMENA 1991-09-25 21:00:00 TS 13.5924 -117.315 main 1294 1294 P_____________ EP121991 13.5924 -117.315 HU 115 949 4 8 284
1991264N10260 1991 70 EP MM JIMENA 1991-09-26 00:00:00 TS 13.7000 -117.700 115 950 hurdat_epa main 1310 1310 O_____________ hurdat_epa EP121991 13.7000 -117.700 HU 115 950 4 7 286
1991264N10260 1991 70 EP MM JIMENA 1991-09-26 03:00:00 TS 13.7924 -118.050 main 1328 1328 P_____________ EP121991 13.7924 -118.050 HU 112 951 3 7 286
1991264N10260 1991 70 EP MM JIMENA 1991-09-26 06:00:00 TS 13.9000 -118.400 110 952 hurdat_epa main 1340 1340 O_____________ hurdat_epa EP121991 13.9000 -118.400 HU 110 952 3 8 289
1991264N10260 1991 70 EP MM JIMENA 1991-09-26 09:00:00 TS 14.0425 -118.800 main 1360 1352 P_____________ EP121991 14.0425 -118.800 HU 110 952 3 8 291
1991264N10260 1991 70 EP MM JIMENA 1991-09-26 12:00:00 TS 14.2000 -119.200 110 953 hurdat_epa main 1373 1372 O_____________ hurdat_epa EP121991 14.2000 -119.200 HU 110 953 3 8 293
1991264N10260 1991 70 EP MM JIMENA 1991-09-26 15:00:00 TS 14.3499 -119.550 main 1395 1387 P_____________ EP121991 14.3499 -119.550 HU 107 954 3 7 294
1991264N10260 1991 70 EP MM JIMENA 1991-09-26 18:00:00 TS 14.5000 -119.900 105 955 hurdat_epa main 1402 1402 O_____________ hurdat_epa EP121991 14.5000 -119.900 HU 105 955 3 8 292
1991264N10260 1991 70 EP MM JIMENA 1991-09-26 21:00:00 TS 14.6425 -120.300 main 1417 1408 P_____________ EP121991 14.6425 -120.300 HU 102 956 3 8 291
1991264N10260 1991 70 EP MM JIMENA 1991-09-27 00:00:00 TS 14.8000 -120.700 100 957 hurdat_epa main 1425 1423 O_____________ hurdat_epa EP121991 14.8000 -120.700 HU 100 957 3 8 296
1991264N10260 1991 70 EP MM JIMENA 1991-09-27 03:00:00 TS 15.0074 -121.065 main 1435 1426 P_____________ EP121991 15.0074 -121.065 HU 100 957 3 8 301
1991264N10260 1991 70 EP MM JIMENA 1991-09-27 06:00:00 TS 15.2000 -121.400 100 958 hurdat_epa main 1438 1437 O_____________ hurdat_epa EP121991 15.2000 -121.400 HU 100 958 3 7 297
1991264N10260 1991 70 EP MM JIMENA 1991-09-27 09:00:00 TS 15.3225 -121.715 main 1451 1450 P_____________ EP121991 15.3225 -121.715 HU 100 959 3 6 289
1991264N10260 1991 70 EP MM JIMENA 1991-09-27 12:00:00 TS 15.4000 -122.000 100 960 hurdat_epa main 1465 1465 O_____________ hurdat_epa EP121991 15.4000 -122.000 HU 100 960 3 5 285
1991264N10260 1991 70 EP MM JIMENA 1991-09-27 15:00:00 TS 15.4649 -122.258 main 1479 1479 P_____________ EP121991 15.4649 -122.258 HU 97 960 3 5 282
1991264N10260 1991 70 EP MM JIMENA 1991-09-27 18:00:00 TS 15.5000 -122.500 95 961 hurdat_epa main 1494 1494 O_____________ hurdat_epa EP121991 15.5000 -122.500 HU 95 961 2 5 275
1991264N10260 1991 70 EP MM JIMENA 1991-09-27 21:00:00 TS 15.5075 -122.750 main 1517 1517 P_____________ EP121991 15.5075 -122.750 HU 95 961 2 5 270
1991264N10260 1991 70 EP MM JIMENA 1991-09-28 00:00:00 TS 15.5000 -123.000 95 962 hurdat_epa main 1532 1532 O_____________ hurdat_epa EP121991 15.5000 -123.000 HU 95 962 2 5 268
1991264N10260 1991 70 EP MM JIMENA 1991-09-28 03:00:00 TS 15.4925 -123.258 main 1555 1555 P_____________ EP121991 15.4925 -123.258 HU 95 962 2 5 270
1991264N10260 1991 70 EP MM JIMENA 1991-09-28 06:00:00 TS 15.5000 -123.500 95 963 hurdat_epa main 1571 1571 O_____________ hurdat_epa EP121991 15.5000 -123.500 HU 95 963 2 4 277
1991264N10260 1991 70 EP MM JIMENA 1991-09-28 09:00:00 TS 15.5425 -123.707 main 1586 1579 P_____________ EP121991 15.5425 -123.707 HU 95 963 2 4 285
1991264N10260 1991 70 EP MM JIMENA 1991-09-28 12:00:00 TS 15.6000 -123.900 95 964 hurdat_epa main 1594 1594 O_____________ hurdat_epa EP121991 15.6000 -123.900 HU 95 964 2 4 285
1991264N10260 1991 70 EP MM JIMENA 1991-09-28 15:00:00 TS 15.6500 -124.115 main 1603 1603 P_____________ EP121991 15.6500 -124.115 HU 95 965 2 4 285
1991264N10260 1991 70 EP MM JIMENA 1991-09-28 18:00:00 TS 15.7000 -124.300 95 966 hurdat_epa main 1619 1619 O_____________ hurdat_epa EP121991 15.7000 -124.300 HU 95 966 2 3 288
1991264N10260 1991 70 EP MM JIMENA 1991-09-28 21:00:00 TS 15.7425 -124.415 main 1627 1620 P_____________ EP121991 15.7425 -124.415 HU 92 966 2 2 297
1991264N10260 1991 70 EP MM JIMENA 1991-09-29 00:00:00 TS 15.8000 -124.500 90 967 hurdat_epa main 1628 1628 O_____________ hurdat_epa EP121991 15.8000 -124.500 HU 90 967 2 2 309
1991264N10260 1991 70 EP MM JIMENA 1991-09-29 03:00:00 TS 15.8850 -124.600 main 1629 1629 P_____________ EP121991 15.8850 -124.600 HU 90 968 2 3 316
1991264N10260 1991 70 EP MM JIMENA 1991-09-29 06:00:00 TS 16.0000 -124.700 90 969 hurdat_epa main 1630 1623 O_____________ hurdat_epa EP121991 16.0000 -124.700 HU 90 969 2 3 322
1991264N10260 1991 70 EP MM JIMENA 1991-09-29 09:00:00 TS 16.1350 -124.800 main 1632 1625 P_____________ EP121991 16.1350 -124.800 HU 90 969 2 4 327
1991264N10260 1991 70 EP MM JIMENA 1991-09-29 12:00:00 TS 16.3000 -124.900 90 970 hurdat_epa main 1626 1619 O_____________ hurdat_epa EP121991 16.3000 -124.900 HU 90 970 2 4 333
1991264N10260 1991 70 EP MM JIMENA 1991-09-29 15:00:00 TS 16.4850 -124.985 main 1619 1608 P_____________ EP121991 16.4850 -124.985 HU 87 971 2 4 335
1991264N10260 1991 70 EP MM JIMENA 1991-09-29 18:00:00 TS 16.7000 -125.100 85 972 hurdat_epa main 1608 1597 O_____________ hurdat_epa EP121991 16.7000 -125.100 HU 85 972 2 5 328
1991264N10260 1991 70 EP MM JIMENA 1991-09-29 21:00:00 TS 16.9425 -125.285 main 1604 1592 P_____________ EP121991 16.9425 -125.285 HU 82 973 1 6 322
1991264N10260 1991 70 EP MM JIMENA 1991-09-30 00:00:00 TS 17.2000 -125.500 80 975 hurdat_epa main 1592 1582 O_____________ hurdat_epa EP121991 17.2000 -125.500 HU 80 975 1 6 322
1991264N10260 1991 70 EP MM JIMENA 1991-09-30 03:00:00 TS 17.4274 -125.685 main 1589 1579 P_____________ EP121991 17.4274 -125.685 HU 75 977 1 6 323
1991264N10260 1991 70 EP MM JIMENA 1991-09-30 06:00:00 TS 17.7000 -125.900 70 979 hurdat_epa main 1579 1561 O_____________ hurdat_epa EP121991 17.7000 -125.900 HU 70 979 1 8 325
1991264N10260 1991 70 EP MM JIMENA 1991-09-30 09:00:00 TS 18.0774 -126.163 main 1568 1560 P_____________ EP121991 18.0774 -126.163 HU 65 983 1 10 324
1991264N10260 1991 70 EP MM JIMENA 1991-09-30 12:00:00 TS 18.5000 -126.500 60 988 hurdat_epa main 1560 1560 O_____________ hurdat_epa EP121991 18.5000 -126.500 TS 60 988 0 11 319
1991264N10260 1991 70 EP MM JIMENA 1991-09-30 15:00:00 TS 18.9076 -126.935 main 1561 1561 P_____________ EP121991 18.9076 -126.935 TS 55 992 0 12 313
1991264N10260 1991 70 EP MM JIMENA 1991-09-30 18:00:00 TS 19.3000 -127.400 50 996 hurdat_epa main 1572 1572 O_____________ hurdat_epa EP121991 19.3000 -127.400 TS 50 996 0 11 313
1991264N10260 1991 70 EP MM JIMENA 1991-09-30 21:00:00 TS 19.6723 -127.800 main 1578 1578 P_____________ EP121991 19.6723 -127.800 TS 42 999 0 10 313
1991264N10260 1991 70 EP MM JIMENA 1991-10-01 00:00:00 TS 20.0000 -128.200 35 1002 hurdat_epa main 1592 1592 O_____________ hurdat_epa EP121991 20.0000 -128.200 TS 35 1002 0 10 306
1991264N10260 1991 70 EP MM JIMENA 1991-10-01 03:00:00 TS 20.2574 -128.643 main 1607 1607 P_____________ EP121991 20.2574 -128.643 TS 32 1004 -1 10 301
1991264N10260 1991 70 EP MM JIMENA 1991-10-01 06:00:00 TS 20.5000 -129.100 30 1006 hurdat_epa main 1639 1639 O_____________ hurdat_epa EP121991 20.5000 -129.100 TD 30 1006 -1 10 302
1991264N10260 1991 70 EP MM JIMENA 1991-10-01 09:00:00 TS 20.7924 -129.558 main 1666 1666 P_____________ EP121991 20.7924 -129.558 TD 27 1007 -1 10 305
1991264N10260 1991 70 EP MM JIMENA 1991-10-01 12:00:00 TS 21.1000 -130.000 25 1009 hurdat_epa main 1685 1685 O_____________ hurdat_epa EP121991 21.1000 -130.000 TD 25 1009 -1 10 307
1991264N10260 1991 70 EP MM JIMENA 1991-10-01 15:00:00 TS 21.3849 -130.415 main 1706 1706 P_____________ EP121991 21.3849 -130.415 TD 25 1009 -1 10 309
1991264N10260 1991 70 EP MM JIMENA 1991-10-01 18:00:00 TS 21.7000 -130.800 25 1010 hurdat_epa main 1728 1718 O_____________ hurdat_epa EP121991 21.7000 -130.800 TD 25 1010 -1 10 315
1991264N10260 1991 70 EP MM JIMENA 1991-10-01 21:00:00 TS 22.0801 -131.157 main 1724 1705 P_____________ EP121991 22.0801 -131.157 TD 22 1010 -1 10 321
1991264N10260 1991 70 EP MM JIMENA 1991-10-02 00:00:00 TS 22.5000 -131.500 20 1011 hurdat_epa main 1705 O_____________ hurdat_epa EP121991 22.5000 -131.500 TD 20 1011 -1 11 323

IBTrACS Databaseについて

本データベースは、米国NOAAが公開する1842年以降の世界の熱帯低気圧のベストトラックデータアーカイブInternational Best Track Archive for Climate Stewardship (IBTrACS)を、ウェブで閲覧しやすい形式に変換したものです。

最終更新日:2021-10-08